Etusivu
METAR-TAF:

METAR-TAF

Lentoasemat :

Woodward, Oklahoma, Yhdysvallat

Leveyspiiri: 36-26-12N, Pituuspiiri: 099-31-16W, korkeus merenpinnasta: 667 m

Tämänhetkinen sää

Tämä raportti tehtiin 27 minuuttia sitten, kello 14.55 UTC
Tuuli 11 kn etelästä
Lämpötila 29°C
Kosteus 52%
Ilmanpaine 1017 hPa
Näkyvyys: 16.1 km
selkeää

METAR: KWWR 061455Z AUTO 18011KT 10SM CLR 29/18 A3002 RMK AO2

Aika: 10:22 (15:22 UTC)

Sääennuste

Tämä raportti tehtiin 4 tuntia ja 2 minuuttia sitten, kello 11.20 UTC
Ennuste voimassa 06. päivästä klo 12 UTC - 07. päivään klo 12 UTC
Tuuli 8 kn etelästä
Näkyvyys: 10 km
Muutamia pilviä 25000 ft:n korkeudessa
From 06. päivästä klo 1900 UTC
Tuuli 15 kn etelästä puuskistuen 22 kn:hen
Näkyvyys: 10 km
selkeää

TAF: KWWR 061120Z 0612/0712 18008KT P6SM FEW250 FM061900 17015G22KT P6SM SKC

Säähavainnot ja -ennusteet yli 4000 lentoasemalta (METAR- ja TAF-raportit).

Käytössä olevat sääasemat on merkitty karttaan keltaisilla ja punaisilla pisteillä.

Aseta hiiri pisteen päälle nähdäksesi sääaseman nimen.

Klikkaa sitten nähdäksesi säähavainnot ja -ennusteet.

Kartan vaihtaminen: klikkaa mustalla rastilla varustettuja vihreitä pisteitä, niin voit zoomata sisään; viivalla varustettua vihreää pistettä, niin voit zoomata ulos tai vihreitä nuolia, niin pääset viereisille kartoille.


METAR-TAF: